createdAt,value
2023-05-02T00:01:49.800Z,48.11
2023-05-02T00:04:17.480Z,48.29
2023-05-02T00:06:46.745Z,48.58
2023-05-02T00:09:15.684Z,48.85
2023-05-02T00:11:43.193Z,49.06
2023-05-02T00:14:12.586Z,48.91
2023-05-02T00:16:40.108Z,49.00
2023-05-02T00:19:08.103Z,49.51
2023-05-02T00:21:35.443Z,50.08
2023-05-02T00:24:02.836Z,49.97
2023-05-02T00:30:02.247Z,49.77
2023-05-02T00:36:00.457Z,50.76
2023-05-02T00:38:27.911Z,50.79
2023-05-02T00:40:55.178Z,50.43
2023-05-02T00:43:22.469Z,50.61
2023-05-02T00:45:50.753Z,51.59
2023-05-02T00:48:20.641Z,52.14
2023-05-02T00:50:47.794Z,53.11
2023-05-02T00:53:15.426Z,53.04
2023-05-02T00:55:43.058Z,53.75
2023-05-02T00:58:15.163Z,54.39
2023-05-02T01:01:00.509Z,55.46
2023-05-02T01:03:53.026Z,55.02
2023-05-02T01:06:35.924Z,55.21
2023-05-02T01:09:18.949Z,54.57
2023-05-02T01:12:29.185Z,53.70
2023-05-02T01:14:57.819Z,53.86
2023-05-02T01:17:29.320Z,53.25
2023-05-02T01:20:03.345Z,52.89
2023-05-02T01:22:31.607Z,52.44
2023-05-02T01:25:31.131Z,51.99
2023-05-02T01:28:13.962Z,52.59
2023-05-02T01:34:12.158Z,52.37
2023-05-02T01:36:45.142Z,52.84
2023-05-02T01:39:17.117Z,53.01
2023-05-02T01:41:45.277Z,53.28
2023-05-02T01:44:13.615Z,53.69
2023-05-02T01:46:42.909Z,53.30
2023-05-02T01:49:10.961Z,53.60
2023-05-02T01:51:44.599Z,53.70
2023-05-02T01:54:14.329Z,52.90
2023-05-02T01:56:43.670Z,54.13
2023-05-02T01:59:14.514Z,54.08
2023-05-02T02:01:43.832Z,54.40
2023-05-02T02:04:13.642Z,54.27
2023-05-02T02:06:43.749Z,53.91
2023-05-02T02:12:39.051Z,54.26
2023-05-02T02:15:17.579Z,54.59
2023-05-02T02:18:02.712Z,54.66
2023-05-02T02:20:32.008Z,55.16
2023-05-02T02:23:01.009Z,56.10
2023-05-02T02:25:28.681Z,55.97
2023-05-02T02:27:57.153Z,56.28
2023-05-02T02:30:24.442Z,57.60
2023-05-02T02:32:51.800Z,58.43
2023-05-02T02:35:19.873Z,59.67
2023-05-02T02:37:48.547Z,60.89
2023-05-02T02:40:21.657Z,61.27
2023-05-02T02:43:00.503Z,61.80
2023-05-02T02:45:35.358Z,61.51
2023-05-02T02:48:28.069Z,63.53
2023-05-02T02:51:01.966Z,61.76
2023-05-02T02:54:05.950Z,61.57
2023-05-02T02:56:40.559Z,61.89
2023-05-02T02:59:13.965Z,63.89
2023-05-02T03:01:44.489Z,63.86
2023-05-02T03:04:11.910Z,64.13
2023-05-02T03:06:39.692Z,64.11
2023-05-02T03:09:07.353Z,65.11
2023-05-02T03:11:34.879Z,65.42
2023-05-02T03:14:02.045Z,65.07
2023-05-02T03:16:37.556Z,65.88
2023-05-02T03:19:06.936Z,64.82
2023-05-02T03:21:35.491Z,65.35
2023-05-02T03:24:05.231Z,66.60
2023-05-02T03:26:32.929Z,67.29
2023-05-02T03:29:00.888Z,65.69
2023-05-02T03:35:00.205Z,68.00
2023-05-02T03:37:29.627Z,69.99
2023-05-02T03:39:57.965Z,69.10
2023-05-02T03:42:25.632Z,70.81
2023-05-02T03:44:53.936Z,70.67
2023-05-02T03:47:21.315Z,69.88
2023-05-02T03:49:49.572Z,69.78
2023-05-02T03:52:17.622Z,70.92
2023-05-02T03:54:46.795Z,70.39
2023-05-02T03:57:14.491Z,70.32
2023-05-02T03:59:45.734Z,71.06
2023-05-02T04:02:14.049Z,70.02
2023-05-02T04:04:43.523Z,70.67
2023-05-02T04:07:18.197Z,70.98
2023-05-02T04:09:46.233Z,69.88
2023-05-02T04:12:15.722Z,69.26
2023-05-02T04:14:43.498Z,69.36
2023-05-02T04:17:11.303Z,68.52
2023-05-02T04:19:39.022Z,69.19
2023-05-02T04:22:06.451Z,68.07
2023-05-02T04:24:35.186Z,68.76
2023-05-02T04:27:03.020Z,67.77
2023-05-02T04:29:30.507Z,66.62
2023-05-02T04:31:58.635Z,66.19
2023-05-02T04:34:27.718Z,65.05
2023-05-02T04:36:55.656Z,65.77
2023-05-02T04:39:24.232Z,65.10
2023-05-02T04:41:53.450Z,62.89
2023-05-02T04:44:22.335Z,63.71
2023-05-02T04:46:50.381Z,62.54
2023-05-02T04:49:19.690Z,61.37
2023-05-02T04:51:47.198Z,62.74
2023-05-02T04:54:15.824Z,61.67
2023-05-02T04:56:43.889Z,59.87
2023-05-02T04:59:14.584Z,59.77
2023-05-02T05:01:42.345Z,59.62
2023-05-02T05:04:10.167Z,59.66
2023-05-02T05:06:37.866Z,58.80
2023-05-02T05:09:06.192Z,58.61
2023-05-02T05:11:34.262Z,58.42
2023-05-02T05:14:04.148Z,58.00
2023-05-02T05:16:32.632Z,57.66
2023-05-02T05:18:59.975Z,56.42
2023-05-02T05:21:27.510Z,57.50
2023-05-02T05:23:56.570Z,56.67
2023-05-02T05:29:55.030Z,57.39
2023-05-02T05:32:22.710Z,55.89
2023-05-02T05:34:53.985Z,55.00
2023-05-02T05:37:22.722Z,52.63
2023-05-02T05:39:50.306Z,49.34
2023-05-02T05:42:18.529Z,45.34
2023-05-02T05:44:46.588Z,45.80
2023-05-02T05:47:20.373Z,43.05
2023-05-02T05:49:48.882Z,42.27
2023-05-02T05:52:16.608Z,41.51
2023-05-02T05:54:43.964Z,40.43
2023-05-02T05:57:11.455Z,41.78
2023-05-02T05:59:39.380Z,39.95
2023-05-02T06:02:07.734Z,37.50
2023-05-02T06:04:35.451Z,36.79
2023-05-02T06:07:03.616Z,38.76
2023-05-02T06:09:30.952Z,36.09
2023-05-02T06:11:58.752Z,39.25
2023-05-02T06:14:26.881Z,39.70
2023-05-02T06:16:54.296Z,39.03
2023-05-02T06:19:22.067Z,36.79
2023-05-02T06:21:49.368Z,39.81
2023-05-02T06:24:17.124Z,40.33
2023-05-02T06:30:17.909Z,37.57
2023-05-02T06:32:45.572Z,35.07
2023-05-02T06:35:12.919Z,33.68
2023-05-02T06:37:40.225Z,31.14
2023-05-02T06:43:39.730Z,36.21
2023-05-02T06:46:08.002Z,33.61
2023-05-02T06:48:38.749Z,33.67
2023-05-02T06:51:27.443Z,35.85
2023-05-02T06:57:30.617Z,33.00
2023-05-02T06:59:58.746Z,31.28
2023-05-02T07:02:26.391Z,29.46
2023-05-02T07:04:53.896Z,29.60
2023-05-02T07:07:22.234Z,29.66
2023-05-02T07:09:49.725Z,30.02
2023-05-02T07:12:30.707Z,29.83
2023-05-02T07:14:58.587Z,29.17
2023-05-02T07:17:26.047Z,29.67
2023-05-02T07:19:56.612Z,32.06
2023-05-02T07:25:53.730Z,36.33
2023-05-02T07:28:21.303Z,36.92
2023-05-02T07:30:48.717Z,38.72
2023-05-02T07:33:16.311Z,35.81
2023-05-02T07:39:14.998Z,34.79
2023-05-02T07:41:42.706Z,35.15
2023-05-02T07:44:09.986Z,35.26
2023-05-02T07:46:37.314Z,35.46
2023-05-02T07:49:22.018Z,34.85
2023-05-02T07:55:30.696Z,33.12
2023-05-02T07:57:58.493Z,31.38
2023-05-02T08:00:34.375Z,31.87
2023-05-02T08:03:15.041Z,32.51
2023-05-02T08:05:42.495Z,33.84
2023-05-02T08:11:40.788Z,33.13
2023-05-02T08:14:48.711Z,33.94
2023-05-02T08:21:01.695Z,33.29
2023-05-02T08:26:58.628Z,35.61
2023-05-02T08:33:08.669Z,35.18
2023-05-02T08:35:36.596Z,36.02
2023-05-02T08:41:35.202Z,33.46
2023-05-02T08:44:04.154Z,33.34
2023-05-02T08:46:33.261Z,34.85
2023-05-02T08:49:01.932Z,35.28
2023-05-02T08:51:32.617Z,35.00
2023-05-02T08:54:02.923Z,34.26
2023-05-02T08:56:30.686Z,34.90
2023-05-02T09:02:50.363Z,36.57
2023-05-02T09:05:21.004Z,34.32
2023-05-02T09:07:49.557Z,34.18
2023-05-02T09:10:16.832Z,32.40
2023-05-02T09:12:44.549Z,35.05
2023-05-02T09:15:19.195Z,34.98
2023-05-02T09:17:49.336Z,34.32
2023-05-02T09:23:47.878Z,34.20
2023-05-02T09:26:35.214Z,35.07
2023-05-02T09:29:04.864Z,36.43
2023-05-02T09:34:10.717Z,34.56
2023-05-02T09:36:50.516Z,34.75
2023-05-02T09:39:22.508Z,34.10
2023-05-02T09:41:51.527Z,34.03
2023-05-02T09:44:24.077Z,34.53
2023-05-02T09:46:56.058Z,35.16
2023-05-02T09:49:42.795Z,34.82
2023-05-02T09:52:15.376Z,34.46
2023-05-02T09:54:43.340Z,32.84
2023-05-02T09:57:11.511Z,33.52
2023-05-02T09:59:43.354Z,34.02
2023-05-02T10:02:12.188Z,35.70
2023-05-02T10:04:40.675Z,35.89
2023-05-02T10:07:10.683Z,37.69
2023-05-02T10:09:44.382Z,37.40
2023-05-02T10:12:17.205Z,37.27
2023-05-02T10:14:50.891Z,37.99
2023-05-02T10:17:35.105Z,37.55
2023-05-02T10:20:07.100Z,38.75
2023-05-02T10:22:36.911Z,37.71
2023-05-02T10:25:04.689Z,37.94
2023-05-02T10:27:33.132Z,37.01
2023-05-02T10:30:01.411Z,37.86
2023-05-02T10:32:29.677Z,37.55
2023-05-02T10:34:57.371Z,37.55
2023-05-02T10:37:28.449Z,37.85
2023-05-02T10:39:55.845Z,38.42
2023-05-02T10:42:23.975Z,37.19
2023-05-02T10:44:51.827Z,38.00
2023-05-02T10:47:22.753Z,37.56
2023-05-02T10:50:01.183Z,37.56
2023-05-02T10:52:34.493Z,37.96
2023-05-02T10:55:22.148Z,38.60
2023-05-02T10:58:09.493Z,38.37
2023-05-02T11:00:37.001Z,37.81
2023-05-02T11:03:04.836Z,38.17
2023-05-02T11:05:37.133Z,37.42
2023-05-02T11:08:19.376Z,38.27
2023-05-02T11:10:48.026Z,37.06
2023-05-02T11:13:15.983Z,36.80
2023-05-02T11:15:43.236Z,39.63
2023-05-02T11:18:14.740Z,38.21
2023-05-02T11:20:43.999Z,38.74
2023-05-02T11:23:24.752Z,38.55
2023-05-02T11:25:56.900Z,37.72
2023-05-02T11:28:45.348Z,36.69
2023-05-02T11:31:29.387Z,35.92
2023-05-02T11:33:57.286Z,34.82
2023-05-02T11:36:34.966Z,33.86
2023-05-02T11:39:05.941Z,34.37
2023-05-02T11:41:43.094Z,34.70
2023-05-02T11:44:10.480Z,35.11
2023-05-02T11:46:39.307Z,34.04
2023-05-02T11:49:09.799Z,33.90
2023-05-02T11:51:38.502Z,34.70
2023-05-02T11:54:08.079Z,34.15
2023-05-02T11:56:35.412Z,32.95
2023-05-02T11:59:04.164Z,32.65
2023-05-02T12:01:31.589Z,32.88
2023-05-02T12:04:07.378Z,32.61
2023-05-02T12:06:35.449Z,33.31
2023-05-02T12:09:10.724Z,32.86
2023-05-02T12:11:38.804Z,33.86
2023-05-02T12:14:09.452Z,33.90
2023-05-02T12:16:38.520Z,33.60
2023-05-02T12:19:06.058Z,33.58
2023-05-02T12:21:36.938Z,33.63
2023-05-02T12:24:04.587Z,34.14
2023-05-02T12:26:33.751Z,34.20
2023-05-02T12:29:02.845Z,34.04
2023-05-02T12:31:32.255Z,34.22
2023-05-02T12:34:00.583Z,34.15
2023-05-02T12:36:28.891Z,34.37
2023-05-02T12:38:59.919Z,34.11
2023-05-02T12:41:34.692Z,34.10
2023-05-02T12:44:01.985Z,34.48
2023-05-02T12:46:30.097Z,34.60
2023-05-02T12:49:12.479Z,34.74
2023-05-02T12:51:52.866Z,34.40
2023-05-02T12:54:20.713Z,34.15
2023-05-02T12:56:49.075Z,32.96
2023-05-02T12:59:29.996Z,33.68
2023-05-02T13:01:57.918Z,33.61
2023-05-02T13:04:45.470Z,33.66
2023-05-02T13:07:13.172Z,33.11
2023-05-02T13:09:40.518Z,32.77
2023-05-02T13:12:08.115Z,32.80
2023-05-02T13:14:35.745Z,33.51
2023-05-02T13:17:04.134Z,33.18
2023-05-02T13:19:31.775Z,33.22
2023-05-02T13:21:59.447Z,33.97
2023-05-02T13:24:26.810Z,34.16
2023-05-02T13:26:53.998Z,33.05
2023-05-02T13:29:22.206Z,34.05
2023-05-02T13:31:49.757Z,33.61
2023-05-02T13:34:17.087Z,33.87
2023-05-02T13:36:46.545Z,34.88
2023-05-02T13:39:16.688Z,33.69
2023-05-02T13:41:44.296Z,34.66
2023-05-02T13:44:11.836Z,34.49
2023-05-02T13:46:39.392Z,34.20
2023-05-02T13:49:06.854Z,34.75
2023-05-02T13:51:34.706Z,34.91
2023-05-02T13:54:05.097Z,35.08
2023-05-02T13:56:34.453Z,35.57
2023-05-02T13:59:02.566Z,35.73
2023-05-02T14:01:30.817Z,35.60
2023-05-02T14:03:59.521Z,35.20
2023-05-02T14:06:27.540Z,35.79
2023-05-02T14:08:55.301Z,35.94
2023-05-02T14:11:25.416Z,35.04
2023-05-02T14:13:57.570Z,36.07
2023-05-02T14:16:25.344Z,36.37
2023-05-02T14:18:54.829Z,35.90
2023-05-02T14:21:21.992Z,36.43
2023-05-02T14:23:49.934Z,35.47
2023-05-02T14:26:17.509Z,36.17
2023-05-02T14:28:44.671Z,35.90
2023-05-02T14:31:12.411Z,35.73
2023-05-02T14:33:39.909Z,36.14
2023-05-02T14:36:07.335Z,36.23
2023-05-02T14:38:34.952Z,36.61
2023-05-02T14:41:03.197Z,36.20
2023-05-02T14:43:30.721Z,37.04
2023-05-02T14:45:59.043Z,36.56
2023-05-02T14:48:26.430Z,36.79
2023-05-02T14:51:01.228Z,35.87
2023-05-02T14:57:11.937Z,35.96
2023-05-02T14:59:40.402Z,36.62
2023-05-02T15:02:08.037Z,36.50
2023-05-02T15:08:10.466Z,36.89
2023-05-02T15:10:39.277Z,36.69
2023-05-02T15:13:07.694Z,36.74
2023-05-02T15:15:35.449Z,36.50
2023-05-02T15:18:07.369Z,36.31
2023-05-02T15:20:34.964Z,37.29
2023-05-02T15:26:33.835Z,40.27
2023-05-02T15:29:02.467Z,42.45
2023-05-02T15:31:29.940Z,43.72
2023-05-02T15:33:57.270Z,44.24
2023-05-02T15:36:29.141Z,44.40
2023-05-02T15:38:57.145Z,45.01
2023-05-02T15:41:29.357Z,45.11
2023-05-02T15:43:58.638Z,45.31
2023-05-02T15:46:26.366Z,45.67
2023-05-02T15:48:56.754Z,45.26
2023-05-02T15:51:23.986Z,46.14
2023-05-02T15:53:52.738Z,46.30
2023-05-02T15:56:21.638Z,46.13
2023-05-02T16:02:19.591Z,45.89
2023-05-02T16:08:17.320Z,45.90
2023-05-02T16:10:45.648Z,46.36
2023-05-02T16:13:13.198Z,46.20
2023-05-02T16:15:40.970Z,46.73
2023-05-02T16:18:09.185Z,46.91
2023-05-02T16:20:37.036Z,47.19
2023-05-02T16:26:34.824Z,47.12
2023-05-02T16:32:32.933Z,46.92
2023-05-02T16:35:05.226Z,46.51
2023-05-02T16:37:33.859Z,46.71
2023-05-02T16:40:02.043Z,47.00
2023-05-02T16:42:29.811Z,47.38
2023-05-02T16:44:57.652Z,47.87
2023-05-02T16:47:28.407Z,48.14
2023-05-02T16:49:56.655Z,48.89
2023-05-02T16:52:24.620Z,48.96
2023-05-02T16:54:52.741Z,49.65
2023-05-02T16:57:21.315Z,50.27
2023-05-02T16:59:51.458Z,50.85
2023-05-02T17:02:21.131Z,51.48
2023-05-02T17:04:49.974Z,51.13
2023-05-02T17:07:17.668Z,51.57
2023-05-02T17:09:45.299Z,51.74
2023-05-02T17:12:12.946Z,52.85
2023-05-02T17:14:42.550Z,53.58
2023-05-02T17:17:10.715Z,53.85
2023-05-02T17:19:39.576Z,54.37
2023-05-02T17:22:07.364Z,56.06
2023-05-02T17:24:36.574Z,57.26
2023-05-02T17:27:04.041Z,59.29
2023-05-02T17:29:31.832Z,65.21
2023-05-02T17:32:02.733Z,74.03
2023-05-02T17:34:30.639Z,73.02
2023-05-02T17:36:57.917Z,74.51
2023-05-02T17:39:25.875Z,75.61
2023-05-02T17:41:53.460Z,74.78
2023-05-02T17:44:21.939Z,76.08
2023-05-02T17:46:49.557Z,79.65
2023-05-02T17:49:17.158Z,81.90
2023-05-02T17:51:44.954Z,84.67
2023-05-02T17:54:13.889Z,86.23
2023-05-02T17:56:41.995Z,87.84
2023-05-02T17:59:10.781Z,88.91
2023-05-02T18:01:43.175Z,90.92
2023-05-02T18:04:16.640Z,91.36
2023-05-02T18:06:48.206Z,91.53
2023-05-02T18:09:16.454Z,93.05
2023-05-02T18:11:46.988Z,92.57
2023-05-02T18:14:17.819Z,92.06
2023-05-02T18:16:48.805Z,90.00
2023-05-02T18:19:16.453Z,89.84
2023-05-02T18:21:46.414Z,90.81
2023-05-02T18:24:14.210Z,92.60
2023-05-02T18:26:42.472Z,94.56
2023-05-02T18:29:10.503Z,95.05
2023-05-02T18:31:40.591Z,96.52
2023-05-02T18:34:09.383Z,96.19
2023-05-02T18:36:37.314Z,97.25
2023-05-02T18:39:05.109Z,98.84
2023-05-02T18:41:32.394Z,97.49
2023-05-02T18:44:01.800Z,98.30
2023-05-02T18:46:30.099Z,100.00
2023-05-02T18:49:00.390Z,100.00
2023-05-02T18:51:29.242Z,100.00
2023-05-02T18:57:27.334Z,100.00
2023-05-02T19:03:29.149Z,100.00
2023-05-02T19:06:01.398Z,100.00
2023-05-02T19:08:29.372Z,100.00
2023-05-02T19:10:57.714Z,100.00
2023-05-02T19:13:27.587Z,100.00
2023-05-02T19:15:56.492Z,100.00
2023-05-02T19:18:27.455Z,100.00
2023-05-02T19:20:57.191Z,100.00
2023-05-02T19:23:27.115Z,100.00
2023-05-02T19:25:58.041Z,100.00
2023-05-02T19:28:32.601Z,100.00
2023-05-02T19:31:03.833Z,100.00
2023-05-02T19:33:32.415Z,100.00
2023-05-02T19:36:00.120Z,100.00
2023-05-02T19:38:27.725Z,100.00
2023-05-02T19:40:56.433Z,100.00
2023-05-02T19:43:24.188Z,100.00
2023-05-02T19:45:54.717Z,100.00
2023-05-02T19:48:23.355Z,100.00
2023-05-02T19:50:58.386Z,100.00
2023-05-02T19:53:27.370Z,100.00
2023-05-02T19:55:55.174Z,100.00
2023-05-02T19:58:30.226Z,100.00
2023-05-02T20:00:58.536Z,100.00
2023-05-02T20:03:26.864Z,100.00
2023-05-02T20:05:58.735Z,100.00
2023-05-02T20:08:28.293Z,100.00
2023-05-02T20:10:56.393Z,100.00
2023-05-02T20:13:24.266Z,100.00
2023-05-02T20:15:52.942Z,100.00
2023-05-02T20:18:21.062Z,100.00
2023-05-02T20:20:49.636Z,100.00
2023-05-02T20:23:17.144Z,100.00
2023-05-02T20:25:46.186Z,100.00
2023-05-02T20:28:13.592Z,100.00
2023-05-02T20:30:42.079Z,100.00
2023-05-02T20:33:15.662Z,100.00
2023-05-02T20:35:45.280Z,100.00
2023-05-02T20:38:12.502Z,100.00
2023-05-02T20:40:40.880Z,100.00
2023-05-02T20:43:08.926Z,100.00
2023-05-02T20:45:36.153Z,100.00
2023-05-02T20:48:03.626Z,100.00
2023-05-02T20:50:31.273Z,100.00
2023-05-02T20:52:59.402Z,100.00
2023-05-02T20:55:26.788Z,100.00
2023-05-02T20:57:54.296Z,100.00
2023-05-02T21:00:24.437Z,100.00
2023-05-02T21:02:51.682Z,100.00
2023-05-02T21:05:19.090Z,100.00
2023-05-02T21:07:46.585Z,100.00
2023-05-02T21:10:13.857Z,100.00
2023-05-02T21:12:41.470Z,100.00
2023-05-02T21:15:08.732Z,100.00
2023-05-02T21:17:40.791Z,100.00
2023-05-02T21:20:10.287Z,100.00
2023-05-02T21:22:37.378Z,100.00
2023-05-02T21:25:04.933Z,100.00
2023-05-02T21:27:32.344Z,100.00
2023-05-02T21:29:59.966Z,100.00
2023-05-02T21:32:27.439Z,100.00
2023-05-02T21:34:54.944Z,100.00
2023-05-02T21:37:22.953Z,100.00
2023-05-02T21:39:50.274Z,100.00
2023-05-02T21:42:17.863Z,100.00
2023-05-02T21:44:44.935Z,100.00
2023-05-02T21:47:12.414Z,100.00
2023-05-02T21:49:40.125Z,100.00
2023-05-02T21:52:07.356Z,100.00
2023-05-02T21:54:34.443Z,100.00
2023-05-02T21:57:04.645Z,100.00
2023-05-02T21:59:31.760Z,100.00
2023-05-02T22:01:58.999Z,100.00
2023-05-02T22:04:26.814Z,100.00
2023-05-02T22:06:54.576Z,100.00
2023-05-02T22:09:22.545Z,100.00
2023-05-02T22:11:50.064Z,100.00
2023-05-02T22:14:17.309Z,100.00
2023-05-02T22:16:44.565Z,100.00
2023-05-02T22:19:11.952Z,100.00
2023-05-02T22:21:39.219Z,100.00
2023-05-02T22:24:06.551Z,100.00
2023-05-02T22:26:33.925Z,100.00
2023-05-02T22:29:01.074Z,100.00
2023-05-02T22:31:28.211Z,100.00
2023-05-02T22:33:55.663Z,100.00
2023-05-02T22:36:22.787Z,100.00
2023-05-02T22:38:49.947Z,100.00
2023-05-02T22:41:17.387Z,100.00
2023-05-02T22:43:44.509Z,100.00
2023-05-02T22:46:11.661Z,100.00
2023-05-02T22:48:39.086Z,100.00
2023-05-02T22:51:06.506Z,100.00
2023-05-02T22:53:33.681Z,100.00
2023-05-02T22:56:01.087Z,100.00
2023-05-02T22:58:28.456Z,100.00
2023-05-02T23:04:14.052Z,100.00
2023-05-02T23:10:11.628Z,100.00
2023-05-02T23:12:39.226Z,100.00
2023-05-02T23:15:07.332Z,100.00
2023-05-02T23:17:41.250Z,100.00
2023-05-02T23:20:12.326Z,100.00
2023-05-02T23:22:46.286Z,100.00
2023-05-02T23:25:14.832Z,100.00
2023-05-02T23:27:42.010Z,100.00
2023-05-02T23:30:09.807Z,100.00
2023-05-02T23:32:37.671Z,100.00
2023-05-02T23:35:05.948Z,100.00
2023-05-02T23:37:33.316Z,100.00
2023-05-02T23:40:01.273Z,100.00
2023-05-02T23:42:33.923Z,100.00
2023-05-02T23:45:01.722Z,100.00
2023-05-02T23:47:28.927Z,100.00
2023-05-02T23:49:56.694Z,100.00
2023-05-02T23:52:24.301Z,100.00
2023-05-02T23:54:52.707Z,100.00
2023-05-02T23:57:19.971Z,100.00
2023-05-02T23:59:47.556Z,100.00
